Time;durP1;ratioP1;P1;durP2;ratioP2;P2;SDS_P1;SDS_P2;PMS_P1;PMS_P2;Temp;Humidity;BMP_temperature;BMP_pressure;BME280_temperature;BME280_humidity;BME280_pressure;Samples;Min_cycle;Max_cycle;Signal;HPM_P1;HPM_P2
2021/07/19 00:00:17;;;;;;;19.80;3.90;;;;;;;14.57;78.98;101953.00;5093925;28;20106;-81
2021/07/19 00:02:44;;;;;;;21.33;4.57;;;;;;;14.72;77.37;101966.59;5061190;28;20114;-80
2021/07/19 00:05:11;;;;;;;17.63;4.22;;;;;;;14.76;77.16;101960.03;5068176;28;20035;-80
2021/07/19 00:07:37;;;;;;;19.88;4.35;;;;;;;14.89;76.55;101962.38;5071114;28;20027;-80
2021/07/19 00:10:06;;;;;;;17.23;5.07;;;;;;;14.93;77.53;101969.03;5074380;28;20404;-79
2021/07/19 00:12:32;;;;;;;15.02;4.85;;;;;;;14.98;76.87;101961.50;5055397;28;20044;-78
2021/07/19 00:14:58;;;;;;;11.88;4.03;;;;;;;14.95;75.77;101952.03;5034561;28;20033;-80
2021/07/19 00:17:23;;;;;;;17.63;4.50;;;;;;;15.18;75.28;101965.72;5035129;28;20032;-79
2021/07/19 00:19:50;;;;;;;13.40;3.78;;;;;;;15.29;76.12;101961.19;5041161;28;20329;-78
2021/07/19 00:22:19;;;;;;;17.33;4.07;;;;;;;15.19;77.92;101955.97;5018286;28;20029;-79
2021/07/19 00:24:45;;;;;;;10.85;3.92;;;;;;;15.17;77.49;101960.56;5028008;28;20049;-79
2021/07/19 00:27:11;;;;;;;18.55;3.88;;;;;;;15.15;76.59;101959.88;5063713;28;20043;-79
2021/07/19 00:29:37;;;;;;;13.32;3.78;;;;;;;15.29;75.69;101958.56;5040194;28;20064;-79
2021/07/19 00:32:05;;;;;;;16.17;3.80;;;;;;;15.24;77.95;101952.88;5054545;28;20029;-78
2021/07/19 00:34:30;;;;;;;18.75;3.72;;;;;;;15.31;75.01;101961.88;5067708;28;20029;-81
2021/07/19 00:36:57;;;;;;;13.50;3.80;;;;;;;15.35;75.03;101956.16;5045708;28;20067;-80
2021/07/19 00:39:24;;;;;;;16.58;3.97;;;;;;;15.41;75.65;101953.88;5037002;28;20123;-80
2021/07/19 00:41:51;;;;;;;19.80;3.67;;;;;;;15.35;74.90;101945.59;5061272;28;20036;-83
2021/07/19 00:44:20;;;;;;;18.52;3.75;;;;;;;15.40;74.72;101955.69;5051986;28;20123;-79
2021/07/19 00:46:50;;;;;;;12.82;3.55;;;;;;;15.31;76.17;101956.59;5040407;28;20500;-81
2021/07/19 00:49:16;;;;;;;19.45;3.60;;;;;;;15.34;75.40;101961.59;5047617;28;20127;-81
2021/07/19 00:51:43;;;;;;;16.75;3.83;;;;;;;15.35;75.78;101964.09;5055545;28;20028;-79
2021/07/19 00:54:12;;;;;;;13.32;3.67;;;;;;;15.27;78.01;101966.63;5051323;28;20029;-80
2021/07/19 00:56:38;;;;;;;14.68;3.65;;;;;;;15.28;77.11;101965.66;5043572;28;20033;-80
2021/07/19 00:59:06;;;;;;;14.23;3.88;;;;;;;15.22;75.99;101962.75;5052109;28;20040;-77
2021/07/19 01:01:33;;;;;;;15.15;3.85;;;;;;;15.20;76.01;101960.28;5025780;28;20119;-83
2021/07/19 01:04:01;;;;;;;16.25;4.13;;;;;;;15.21;75.86;101959.28;5040748;28;20032;-78
2021/07/19 01:06:29;;;;;;;19.63;3.83;;;;;;;15.26;75.83;101959.69;5057704;28;20064;-80
2021/07/19 01:08:57;;;;;;;22.83;4.28;;;;;;;15.26;73.28;101950.94;5031424;28;20063;-80
2021/07/19 01:11:26;;;;;;;14.52;3.70;;;;;;;15.28;74.95;101948.97;5047751;28;20518;-79
2021/07/19 01:13:51;;;;;;;12.63;2.97;;;;;;;15.29;73.67;101962.03;5066158;28;20027;-80
2021/07/19 01:16:17;;;;;;;13.27;3.60;;;;;;;15.22;76.72;101955.69;5068267;28;20293;-82
2021/07/19 01:18:44;;;;;;;17.98;3.50;;;;;;;15.15;76.56;101955.44;5081560;28;20122;-81
2021/07/19 01:21:37;;;;;;;18.10;4.07;;;;;;;15.12;76.46;101962.81;5067282;28;20053;-80
2021/07/19 01:24:40;;;;;;;14.98;3.72;;;;;;;15.15;77.11;101970.47;5070682;28;20035;-80
2021/07/19 01:27:26;;;;;;;16.58;3.42;;;;;;;15.27;75.57;101963.16;5086004;28;20063;-81
2021/07/19 01:29:53;;;;;;;11.52;3.38;;;;;;;15.22;74.20;101960.13;5074775;28;20039;-80
2021/07/19 01:32:21;;;;;;;17.08;3.83;;;;;;;15.23;73.48;101959.97;5081900;28;20039;-78
2021/07/19 01:34:49;;;;;;;15.68;3.75;;;;;;;15.22;73.60;101968.03;5069708;28;20038;-82
2021/07/19 01:37:16;;;;;;;11.35;3.47;;;;;;;15.24;73.82;101974.00;5094841;28;20036;-79
2021/07/19 01:40:06;;;;;;;13.25;3.55;;;;;;;15.21;73.97;101966.41;5074938;28;20036;-78
2021/07/19 01:42:32;;;;;;;19.15;3.38;;;;;;;15.27;72.77;101971.91;5075237;28;20035;-79
2021/07/19 01:44:59;;;;;;;14.57;3.40;;;;;;;15.29;73.35;101977.06;5084142;28;20036;-80
2021/07/19 01:47:25;;;;;;;17.25;3.58;;;;;;;15.24;74.42;101963.44;5096524;28;20043;-80
2021/07/19 01:49:52;;;;;;;12.48;3.63;;;;;;;15.20;73.68;101960.28;5077924;28;20039;-80
2021/07/19 01:52:19;;;;;;;13.27;3.40;;;;;;;15.17;74.77;101957.94;5078193;28;20040;-79
2021/07/19 01:54:46;;;;;;;14.40;3.10;;;;;;;15.19;74.99;101959.44;5080270;28;20024;-81
2021/07/19 01:57:13;;;;;;;16.80;3.10;;;;;;;15.17;72.77;101961.41;5066759;28;20027;-79
2021/07/19 01:59:47;;;;;;;15.93;3.78;;;;;;;15.25;73.31;101958.00;5067480;28;20027;-82
2021/07/19 02:02:29;;;;;;;16.13;3.47;;;;;;;15.27;73.43;101956.06;5081982;28;20043;-82
2021/07/19 02:04:59;;;;;;;7.82;2.80;;;;;;;15.23;72.70;101956.50;5080006;28;20035;-80
2021/07/19 02:07:27;;;;;;;13.98;3.10;;;;;;;15.27;72.66;101961.34;5082183;28;20504;-80
2021/07/19 02:10:00;;;;;;;11.77;3.40;;;;;;;15.33;73.18;101962.56;5083366;28;20108;-80
2021/07/19 02:12:42;;;;;;;12.48;3.05;;;;;;;15.19;73.07;101958.59;5088837;28;20031;-80
2021/07/19 02:15:18;;;;;;;14.95;3.75;;;;;;;15.21;71.76;101953.19;5070270;28;20019;-81
2021/07/19 02:17:58;;;;;;;14.38;3.55;;;;;;;15.20;73.86;101960.28;5061905;28;20035;-81
2021/07/19 02:20:27;;;;;;;16.33;3.33;;;;;;;15.23;73.48;101964.44;5077728;28;20059;-80
2021/07/19 02:22:56;;;;;;;11.05;3.80;;;;;;;15.23;73.00;101959.16;5086749;28;20387;-82
2021/07/19 02:25:41;;;;;;;10.48;3.50;;;;;;;15.24;73.14;101961.66;5087369;28;20461;-82
2021/07/19 02:28:11;;;;;;;15.07;3.47;;;;;;;15.23;73.15;101964.44;5089102;28;20048;-80
2021/07/19 02:30:38;;;;;;;13.63;3.67;;;;;;;15.31;72.60;101968.03;5087822;28;20036;-81
2021/07/19 02:33:05;;;;;;;16.60;3.63;;;;;;;15.26;73.99;101950.94;5074897;28;20042;-81
2021/07/19 02:35:36;;;;;;;16.40;3.00;;;;;;;15.16;75.80;101956.25;5073310;28;20088;-83
2021/07/19 02:38:07;;;;;;;16.85;3.22;;;;;;;15.16;74.46;101961.53;5085815;28;20028;-82
2021/07/19 02:40:47;;;;;;;15.18;3.42;;;;;;;15.18;74.94;101964.88;5068223;28;20024;-81
2021/07/19 02:43:14;;;;;;;16.70;3.30;;;;;;;15.19;73.48;101959.44;5075969;28;20666;-79
2021/07/19 02:45:44;;;;;;;9.65;2.92;;;;;;;15.11;75.96;101961.16;5084867;28;20043;-82
2021/07/19 02:48:12;;;;;;;11.07;2.97;;;;;;;15.15;74.59;101958.06;5091999;28;20519;-82
2021/07/19 02:50:44;;;;;;;9.45;3.10;;;;;;;15.27;72.83;101963.97;5066014;28;20028;-82
2021/07/19 02:53:13;;;;;;;12.45;3.30;;;;;;;15.29;72.96;101959.38;5095281;28;20032;-80
2021/07/19 02:55:40;;;;;;;11.77;3.30;;;;;;;15.25;73.71;101951.91;5077637;28;20031;-80
2021/07/19 02:58:07;;;;;;;16.98;3.35;;;;;;;15.28;74.72;101956.91;5093474;28;20035;-82
2021/07/19 03:00:35;;;;;;;16.48;4.25;;;;;;;15.24;71.12;101959.00;5075605;28;20031;-80
2021/07/19 03:03:05;;;;;;;13.88;3.47;;;;;;;15.20;71.81;101952.34;5059087;28;20035;-82
2021/07/19 03:05:35;;;;;;;14.45;3.58;;;;;;;15.25;71.62;101955.38;5058256;28;20082;-81
2021/07/19 03:08:05;;;;;;;11.05;3.67;;;;;;;15.24;70.62;101960.78;5064956;28;20051;-82
2021/07/19 03:10:58;;;;;;;10.27;3.50;;;;;;;15.24;72.60;101943.16;5105081;28;20409;-80
2021/07/19 03:13:32;;;;;;;13.82;4.22;;;;;;;15.22;73.23;101955.69;5082412;28;20088;-81
2021/07/19 03:15:58;;;;;;;16.08;4.30;;;;;;;15.21;70.92;101953.19;5069263;28;20035;-80
2021/07/19 03:18:26;;;;;;;14.20;4.07;;;;;;;15.18;72.06;101954.28;5112386;28;20071;-81
2021/07/19 03:20:55;;;;;;;11.65;4.30;;;;;;;15.28;69.78;101946.34;5073579;28;20028;-81
2021/07/19 03:23:24;;;;;;;9.98;4.10;;;;;;;15.17;71.46;101948.19;5072062;28;20039;-81
2021/07/19 03:25:53;;;;;;;10.93;4.07;;;;;;;15.23;68.88;101948.56;5060476;28;20039;-82
2021/07/19 03:28:20;;;;;;;11.00;3.92;;;;;;;15.28;68.92;101956.91;5075268;28;20405;-81
2021/07/19 03:30:51;;;;;;;13.00;4.25;;;;;;;15.17;68.88;101955.28;5085074;28;20139;-82
2021/07/19 03:33:17;;;;;;;9.70;4.20;;;;;;;15.23;67.79;101961.78;5087202;28;20084;-81
2021/07/19 03:35:44;;;;;;;9.95;4.10;;;;;;;15.25;68.81;101954.53;5074876;28;20036;-80
2021/07/19 03:38:16;;;;;;;12.60;4.05;;;;;;;15.36;70.21;101968.38;5058994;28;20063;-81
2021/07/19 03:41:07;;;;;;;16.58;4.80;;;;;;;15.31;68.20;101957.44;5080678;28;20122;-81
2021/07/19 03:43:34;;;;;;;10.60;4.72;;;;;;;15.29;69.41;101966.47;5082581;28;20058;-80
2021/07/19 03:46:01;;;;;;;12.18;3.83;;;;;;;15.32;68.83;101963.56;5086767;28;20040;-80
2021/07/19 03:48:29;;;;;;;9.18;4.18;;;;;;;15.27;71.07;101969.28;5073523;28;20027;-79
2021/07/19 03:50:55;;;;;;;11.52;4.90;;;;;;;15.26;70.51;101964.97;5071880;28;20035;-81
2021/07/19 03:53:21;;;;;;;10.75;4.68;;;;;;;15.26;69.03;101969.44;5081809;28;20106;-80
2021/07/19 03:55:59;;;;;;;10.70;5.05;;;;;;;15.27;71.38;101960.50;5089139;28;20027;-80
2021/07/19 03:58:25;;;;;;;13.52;5.20;;;;;;;15.18;71.34;101960.44;5086024;28;20051;-79
2021/07/19 04:00:54;;;;;;;8.70;5.03;;;;;;;15.14;71.29;101967.00;5074454;28;20066;-80
2021/07/19 04:03:27;;;;;;;11.57;5.20;;;;;;;15.15;72.34;101965.19;5085270;28;20055;-81
2021/07/19 04:06:00;;;;;;;9.73;5.18;;;;;;;15.10;73.84;101960.31;5108904;28;20489;-81
2021/07/19 04:08:36;;;;;;;12.85;6.07;;;;;;;15.19;71.29;101963.91;5064199;28;20057;-82
2021/07/19 04:11:02;;;;;;;13.05;5.85;;;;;;;15.21;74.15;101976.97;5070352;28;20035;-78
2021/07/19 04:13:30;;;;;;;11.95;5.97;;;;;;;15.19;72.25;101969.19;5105627;28;20096;-81
2021/07/19 04:15:59;;;;;;;12.55;5.65;;;;;;;15.20;71.32;101970.84;5082156;28;20135;-80
2021/07/19 04:18:26;;;;;;;17.25;6.22;;;;;;;15.24;72.23;101964.28;5095534;28;20038;-83
2021/07/19 04:20:53;;;;;;;14.70;5.63;;;;;;;15.25;71.08;101962.47;5088388;28;20704;-82
2021/07/19 04:23:22;;;;;;;16.48;5.85;;;;;;;15.29;71.09;101950.63;5064376;28;20036;-81
2021/07/19 04:25:53;;;;;;;13.60;6.30;;;;;;;15.39;71.93;101954.06;5077070;28;20024;-81
2021/07/19 04:28:21;;;;;;;10.80;5.75;;;;;;;15.26;70.49;101951.75;5064417;28;20031;-80
2021/07/19 04:30:49;;;;;;;10.88;5.45;;;;;;;15.24;70.95;101953.72;5095682;28;20102;-79
2021/07/19 04:33:22;;;;;;;11.73;5.20;;;;;;;15.28;72.76;101957.72;5071872;28;20031;-79
2021/07/19 04:35:50;;;;;;;;;;;;;;;15.26;71.01;101958.88;5090267;28;20762;-80
2021/07/19 04:38:21;;;;;;;13.98;5.45;;;;;;;15.24;72.72;101959.00;5096461;28;20369;-81
2021/07/19 04:40:55;;;;;;;11.25;5.35;;;;;;;15.26;73.46;101956.22;5076553;28;20032;-80
2021/07/19 04:43:22;;;;;;;10.32;5.53;;;;;;;15.29;72.19;101958.56;5078369;28;20040;-81
2021/07/19 04:45:49;;;;;;;11.98;5.72;;;;;;;15.34;73.77;101958.94;5091189;28;20035;-79
2021/07/19 04:48:16;;;;;;;10.20;4.80;;;;;;;15.33;73.63;101963.41;5083547;28;20047;-79
2021/07/19 04:50:42;;;;;;;16.10;5.88;;;;;;;15.37;77.35;101970.06;5086417;28;20512;-80
2021/07/19 04:53:09;;;;;;;10.05;5.70;;;;;;;15.38;74.65;101960.31;5069270;28;20046;-78
2021/07/19 04:55:37;;;;;;;11.10;5.65;;;;;;;15.33;75.58;101973.13;5099379;28;20036;-78
2021/07/19 04:58:06;;;;;;;12.95;5.95;;;;;;;15.38;73.62;101973.53;5085842;28;20447;-77
2021/07/19 05:00:33;;;;;;;10.25;5.50;;;;;;;15.46;72.92;101978.91;5097926;28;20455;-81
2021/07/19 05:03:01;;;;;;;14.75;5.63;;;;;;;15.42;75.39;101982.81;5091426;28;20027;-79
2021/07/19 05:05:29;;;;;;;15.30;5.68;;;;;;;15.51;73.25;101976.66;5089157;28;20030;-79
2021/07/19 05:07:55;;;;;;;12.05;5.47;;;;;;;15.46;73.38;101986.81;5094059;28;20036;-77
2021/07/19 05:10:23;;;;;;;13.98;5.57;;;;;;;15.47;76.30;101983.22;5075618;28;20035;-79
2021/07/19 05:12:51;;;;;;;13.70;5.70;;;;;;;15.60;71.56;101982.88;5078644;28;20040;-79
2021/07/19 05:15:18;;;;;;;17.40;6.00;;;;;;;15.62;75.13;101986.19;5084018;28;20024;-79
2021/07/19 05:17:44;;;;;;;10.20;5.30;;;;;;;15.64;74.14;101978.13;5095142;28;20397;-80
2021/07/19 05:20:11;;;;;;;12.30;5.55;;;;;;;15.68;69.66;101990.88;5092212;28;20028;-81
2021/07/19 05:22:37;;;;;;;11.65;4.95;;;;;;;15.66;74.35;101992.84;5090035;28;20024;-78
2021/07/19 05:25:03;;;;;;;11.40;5.32;;;;;;;15.65;70.74;101990.34;5092800;28;20040;-79
2021/07/19 05:27:28;;;;;;;9.98;4.97;;;;;;;15.68;72.77;101988.22;5113145;28;20064;-81
2021/07/19 05:29:54;;;;;;;12.00;5.68;;;;;;;15.64;69.02;101991.34;5080442;28;20058;-81
2021/07/19 05:32:20;;;;;;;14.57;5.55;;;;;;;15.64;70.79;101988.69;5090331;28;20031;-80
2021/07/19 05:34:45;;;;;;;14.05;5.15;;;;;;;15.73;71.99;101996.59;5114271;28;20027;-80
2021/07/19 05:37:11;;;;;;;9.35;4.53;;;;;;;15.66;71.21;101984.91;5090689;28;20146;-78
2021/07/19 05:39:36;;;;;;;9.15;5.40;;;;;;;15.72;68.56;101988.75;5110294;28;20032;-78
2021/07/19 05:42:02;;;;;;;10.50;5.60;;;;;;;15.74;69.39;101987.66;5079176;28;20058;-80
2021/07/19 05:44:28;;;;;;;8.85;4.75;;;;;;;15.73;69.25;101988.66;5092903;28;20119;-78
2021/07/19 05:46:53;;;;;;;9.68;4.93;;;;;;;15.75;70.11;101991.97;5072221;28;20040;-80
2021/07/19 05:49:19;;;;;;;10.15;4.90;;;;;;;15.75;70.23;101988.50;5075300;28;20035;-80
2021/07/19 05:51:45;;;;;;;10.68;5.10;;;;;;;15.78;70.42;101993.47;5080541;28;20111;-83
2021/07/19 05:54:11;;;;;;;11.88;5.28;;;;;;;15.81;71.43;101987.91;5083377;28;20043;-81
2021/07/19 05:56:36;;;;;;;10.93;5.22;;;;;;;15.89;74.11;101995.91;5073899;28;20028;-80
2021/07/19 05:59:03;;;;;;;12.27;5.40;;;;;;;15.89;74.86;101997.72;5073847;28;20032;-82
2021/07/19 06:01:28;;;;;;;12.40;5.28;;;;;;;15.98;72.21;102002.13;5076102;28;20128;-81
2021/07/19 06:03:54;;;;;;;10.73;5.75;;;;;;;16.10;74.11;102008.00;5093235;28;20131;-80
2021/07/19 06:06:20;;;;;;;10.57;5.45;;;;;;;16.12;70.31;102009.53;5059440;28;20139;-82
2021/07/19 06:08:46;;;;;;;11.80;6.03;;;;;;;16.09;74.74;102006.34;5077608;28;20485;-80
2021/07/19 06:11:12;;;;;;;10.65;5.68;;;;;;;16.06;72.34;102004.00;5063785;28;20032;-79
2021/07/19 06:13:37;;;;;;;10.00;5.30;;;;;;;16.19;70.55;102004.44;5113853;28;20561;-80
2021/07/19 06:16:03;;;;;;;9.30;4.60;;;;;;;16.13;66.69;101999.75;5093370;28;20413;-81
2021/07/19 06:18:28;;;;;;;9.10;4.93;;;;;;;16.21;67.86;102005.13;5063662;28;20043;-81
2021/07/19 06:20:54;;;;;;;12.13;6.25;;;;;;;16.27;70.79;102011.63;5078585;28;20043;-82
2021/07/19 06:23:20;;;;;;;13.43;5.68;;;;;;;16.31;67.58;102021.75;5099471;28;20070;-79
2021/07/19 06:25:45;;;;;;;12.05;5.43;;;;;;;16.37;66.17;102020.31;5069300;28;20035;-81
2021/07/19 06:28:11;;;;;;;10.65;5.63;;;;;;;16.42;66.59;102027.78;5073850;28;20032;-80
2021/07/19 06:30:37;;;;;;;14.07;6.10;;;;;;;16.41;67.37;102026.97;5060530;28;20052;-82
2021/07/19 06:33:03;;;;;;;11.63;5.47;;;;;;;16.38;64.93;102024.63;5073879;28;20031;-80
2021/07/19 06:35:29;;;;;;;12.30;5.57;;;;;;;16.30;69.22;102025.38;5088403;28;20035;-81
2021/07/19 06:37:55;;;;;;;11.02;5.20;;;;;;;16.44;66.84;102020.53;5076660;28;20036;-79
2021/07/19 06:40:21;;;;;;;10.57;5.38;;;;;;;16.44;66.01;102021.34;5075358;28;20123;-80
2021/07/19 06:42:47;;;;;;;13.05;5.45;;;;;;;16.48;68.13;102030.66;5078494;28;20028;-80
2021/07/19 06:45:14;;;;;;;7.60;5.00;;;;;;;16.48;66.69;102029.81;5065927;28;20038;-82
2021/07/19 06:47:40;;;;;;;12.05;5.00;;;;;;;16.51;64.75;102040.09;5080052;28;20386;-82
2021/07/19 06:50:11;;;;;;;10.07;5.40;;;;;;;16.67;65.76;102032.28;5065498;28;20058;-80
2021/07/19 06:52:38;;;;;;;10.23;5.00;;;;;;;16.67;63.70;102031.44;5085215;28;20066;-82
2021/07/19 06:55:06;;;;;;;9.32;4.80;;;;;;;16.74;67.04;102038.63;5097633;28;20468;-81
2021/07/19 06:57:31;;;;;;;9.32;5.15;;;;;;;16.80;63.72;102037.19;5089462;28;20051;-81
2021/07/19 06:59:57;;;;;;;7.53;4.38;;;;;;;16.89;62.07;102032.78;5072718;28;20036;-81
2021/07/19 07:02:22;;;;;;;8.50;4.60;;;;;;;16.89;61.07;102030.94;5075336;28;20494;-81
2021/07/19 07:04:48;;;;;;;7.25;4.18;;;;;;;16.93;62.32;102034.97;5079259;28;20040;-81
2021/07/19 07:07:13;;;;;;;9.25;4.65;;;;;;;17.10;61.35;102040.34;5070011;28;20032;-80
2021/07/19 07:09:39;;;;;;;12.48;5.25;;;;;;;17.20;61.88;102032.28;5071986;28;20079;-81
2021/07/19 07:12:05;;;;;;;8.02;5.55;;;;;;;17.26;67.01;102040.44;5069467;28;20038;-79
2021/07/19 07:14:30;;;;;;;9.88;4.55;;;;;;;17.17;63.32;102038.72;5066687;28;20073;-83
2021/07/19 07:16:56;;;;;;;7.55;4.43;;;;;;;17.18;61.18;102044.84;5066956;28;20122;-81
2021/07/19 07:19:22;;;;;;;8.30;4.00;;;;;;;17.26;61.82;102032.47;5066738;28;20104;-80
2021/07/19 07:21:48;;;;;;;9.25;4.07;;;;;;;17.19;59.60;102035.91;5069449;28;20036;-79
2021/07/19 07:24:13;;;;;;;6.68;4.05;;;;;;;17.29;59.95;102026.00;5111284;28;20047;-76
2021/07/19 07:26:47;;;;;;;7.55;4.38;;;;;;;17.61;60.93;102033.28;5077147;28;20035;-80
2021/07/19 07:29:12;;;;;;;9.65;4.40;;;;;;;17.71;60.50;102038.44;5061495;28;20150;-81
2021/07/19 07:31:38;;;;;;;8.88;4.25;;;;;;;17.69;62.23;102040.44;5086059;28;20064;-81
2021/07/19 07:34:05;;;;;;;10.13;3.97;;;;;;;17.69;61.08;102035.94;5095027;28;20049;-78
2021/07/19 07:36:33;;;;;;;8.43;4.55;;;;;;;17.59;59.68;102045.03;5074975;28;20090;-80
2021/07/19 07:39:00;;;;;;;7.72;3.70;;;;;;;17.74;60.03;102037.28;5096024;28;20053;-81
2021/07/19 07:41:26;;;;;;;9.18;3.53;;;;;;;17.71;58.21;102038.44;5077584;28;20035;-80
2021/07/19 07:43:51;;;;;;;9.73;3.75;;;;;;;17.80;58.29;102039.25;5072899;28;20085;-81
2021/07/19 07:46:17;;;;;;;9.80;4.38;;;;;;;17.78;62.46;102038.59;5075648;28;20032;-80
2021/07/19 07:48:42;;;;;;;9.43;3.97;;;;;;;17.83;60.06;102039.78;5088702;28;20032;-79
2021/07/19 07:51:10;;;;;;;6.75;4.18;;;;;;;17.98;62.56;102041.84;5086479;28;20427;-80
2021/07/19 07:53:36;;;;;;;7.68;4.15;;;;;;;18.01;66.88;102036.22;5092083;28;20031;-79
2021/07/19 07:56:03;;;;;;;7.43;3.90;;;;;;;17.69;58.93;102037.78;5067122;28;20024;-82
2021/07/19 07:58:29;;;;;;;7.90;3.85;;;;;;;17.65;59.66;102042.56;5075983;28;20174;-79
2021/07/19 08:00:55;;;;;;;9.35;3.92;;;;;;;17.73;60.86;102043.59;5058382;28;20028;-80
2021/07/19 08:03:21;;;;;;;8.07;4.30;;;;;;;17.70;59.24;102034.94;5068751;28;20039;-82
2021/07/19 08:05:47;;;;;;;6.88;3.90;;;;;;;17.61;59.73;102027.97;5094431;28;20178;-81
2021/07/19 08:08:13;;;;;;;8.68;3.80;;;;;;;17.58;58.81;102041.53;5076119;28;20390;-82
2021/07/19 08:10:38;;;;;;;7.13;3.80;;;;;;;17.66;59.14;102038.91;5101482;28;20061;-81
2021/07/19 08:13:04;;;;;;;6.60;3.65;;;;;;;17.77;58.90;102037.78;5090905;28;20481;-81
2021/07/19 08:15:33;;;;;;;5.95;3.58;;;;;;;17.89;58.73;102038.31;5075402;28;20032;-79
2021/07/19 08:17:58;;;;;;;9.68;3.60;;;;;;;17.97;58.81;102029.53;5078629;28;20464;-82
2021/07/19 08:20:24;;;;;;;13.43;3.70;;;;;;;18.04;58.06;102031.38;5086669;28;20068;-84
2021/07/19 08:22:49;;;;;;;7.28;3.40;;;;;;;18.25;57.88;102030.06;5082551;28;20800;-81
2021/07/19 08:25:17;;;;;;;9.65;3.65;;;;;;;18.28;56.42;102035.88;5071109;28;20036;-81
2021/07/19 08:27:43;;;;;;;6.47;3.33;;;;;;;18.41;55.87;102022.09;5067469;28;20097;-79
2021/07/19 08:30:10;;;;;;;12.55;3.65;;;;;;;18.57;59.20;102020.41;5074384;28;20027;-81
2021/07/19 08:32:35;;;;;;;7.22;3.70;;;;;;;18.56;57.35;102021.44;5064024;28;20075;-81
2021/07/19 08:35:01;;;;;;;6.88;3.05;;;;;;;18.48;57.84;102025.75;5071197;28;20074;-80
2021/07/19 08:37:28;;;;;;;6.03;3.05;;;;;;;18.15;57.53;102032.06;5070236;28;20561;-79
2021/07/19 08:39:53;;;;;;;5.25;2.67;;;;;;;17.93;56.34;102037.00;5058345;28;20038;-79
2021/07/19 08:42:19;;;;;;;6.88;3.00;;;;;;;17.82;57.33;102040.78;5073159;28;20036;-80
2021/07/19 08:44:44;;;;;;;5.15;2.78;;;;;;;17.78;58.29;102041.25;5070167;28;20043;-79
2021/07/19 08:47:11;;;;;;;5.38;3.28;;;;;;;17.90;56.41;102032.84;5082893;28;20035;-79
2021/07/19 08:49:38;;;;;;;5.68;2.90;;;;;;;18.03;59.95;102034.22;5074223;28;20032;-79
2021/07/19 08:52:05;;;;;;;6.63;2.72;;;;;;;18.17;58.02;102024.75;5071739;28;20085;-81
2021/07/19 08:54:38;;;;;;;5.63;3.20;;;;;;;18.29;57.06;102034.06;5074794;28;20502;-80
2021/07/19 08:57:05;;;;;;;3.33;2.13;;;;;;;18.39;54.79;102023.28;5069703;28;20028;-80
2021/07/19 08:59:31;;;;;;;7.63;2.30;;;;;;;18.62;53.86;102012.78;5104466;28;20092;-79
2021/07/19 09:02:01;;;;;;;4.25;2.55;;;;;;;19.02;53.26;102019.00;5075654;28;20036;-80
2021/07/19 09:04:27;;;;;;;5.28;2.40;;;;;;;19.13;52.32;102025.78;5071654;28;20517;-79
2021/07/19 09:06:53;;;;;;;6.55;2.60;;;;;;;19.12;56.13;102018.81;5074491;28;20035;-78
2021/07/19 09:09:29;;;;;;;7.72;2.35;;;;;;;19.08;53.42;102018.34;5089040;28;20032;-79
2021/07/19 09:11:55;;;;;;;4.28;2.03;;;;;;;19.10;52.14;102019.00;5073682;28;20024;-83
2021/07/19 09:14:20;;;;;;;4.60;2.13;;;;;;;19.12;53.88;102024.97;5068323;28;20122;-80
2021/07/19 09:16:48;;;;;;;7.22;2.25;;;;;;;19.23;52.92;102019.28;5077740;28;20036;-80
2021/07/19 09:19:16;;;;;;;5.28;2.40;;;;;;;19.39;54.36;102015.69;5073174;28;20031;-78
2021/07/19 09:21:44;;;;;;;6.25;2.30;;;;;;;19.48;54.82;102020.97;5079745;28;20034;-79
2021/07/19 09:24:12;;;;;;;5.82;3.00;;;;;;;19.54;53.42;102013.13;5074515;28;20028;-80
2021/07/19 09:26:40;;;;;;;5.88;2.30;;;;;;;19.49;54.24;102006.69;5072457;28;20036;-80
2021/07/19 09:29:08;;;;;;;7.60;2.60;;;;;;;19.47;54.20;102006.03;5076991;28;20520;-79
2021/07/19 09:31:40;;;;;;;4.03;2.33;;;;;;;19.27;55.21;102006.47;5078990;28;20024;-83
2021/07/19 09:34:17;;;;;;;5.68;2.47;;;;;;;19.40;59.06;102006.72;5089551;28;20024;-80
2021/07/19 09:37:02;;;;;;;7.80;2.33;;;;;;;19.37;57.53;102000.94;5089896;28;20067;-80
2021/07/19 09:39:31;;;;;;;10.73;2.47;;;;;;;19.20;58.15;102005.50;5105072;28;20040;-81
2021/07/19 09:42:07;;;;;;;5.30;1.73;;;;;;;19.29;52.94;102000.94;5091014;28;20088;-81
2021/07/19 09:44:33;;;;;;;12.35;2.30;;;;;;;19.38;53.64;101995.44;5097072;28;20031;-80
2021/07/19 09:47:02;;;;;;;4.00;2.08;;;;;;;19.39;55.51;102010.38;5078454;28;20047;-80
2021/07/19 09:49:30;;;;;;;6.95;2.20;;;;;;;19.33;56.51;101996.97;5088877;28;20035;-81
2021/07/19 09:52:06;;;;;;;6.40;2.10;;;;;;;19.13;52.19;101994.72;5074402;28;20030;-81
2021/07/19 09:54:42;;;;;;;7.95;2.10;;;;;;;19.19;57.39;101990.53;5091658;28;20031;-81
2021/07/19 09:57:08;;;;;;;4.97;2.22;;;;;;;19.17;55.86;101997.84;5074220;28;20031;-78
2021/07/19 09:59:36;;;;;;;6.55;2.30;;;;;;;19.22;60.29;102000.84;5082397;28;20039;-79
2021/07/19 10:02:02;;;;;;;4.07;2.10;;;;;;;19.29;55.86;101991.16;5069135;28;20040;-79
2021/07/19 10:04:28;;;;;;;6.70;2.33;;;;;;;19.24;55.53;101990.84;5068612;28;20032;-79
2021/07/19 10:06:55;;;;;;;8.48;2.25;;;;;;;19.04;56.13;101991.28;5081884;28;20054;-81
2021/07/19 10:09:21;;;;;;;7.30;2.53;;;;;;;18.94;54.04;101992.47;5085454;28;20039;-77
2021/07/19 10:11:49;;;;;;;4.55;2.30;;;;;;;18.92;53.96;101992.63;5061120;28;20032;-78
2021/07/19 10:14:25;;;;;;;9.05;2.30;;;;;;;18.95;54.20;101986.97;5067924;28;20114;-79
2021/07/19 10:16:51;;;;;;;5.43;1.95;;;;;;;19.11;53.88;101986.06;5095832;28;20036;-82
2021/07/19 10:19:17;;;;;;;6.32;2.35;;;;;;;19.31;53.83;101986.50;5105926;28;20042;-78
2021/07/19 10:21:43;;;;;;;9.10;2.60;;;;;;;19.56;53.87;101986.34;5073714;28;20031;-81
2021/07/19 10:24:09;;;;;;;6.28;2.50;;;;;;;19.67;54.42;101979.81;5078024;28;20036;-80
2021/07/19 10:26:36;;;;;;;6.25;2.25;;;;;;;19.71;52.75;101970.47;5063808;28;20062;-82
2021/07/19 10:29:04;;;;;;;7.93;2.45;;;;;;;19.74;53.62;101976.28;5083799;28;20020;-80
2021/07/19 10:31:30;;;;;;;5.22;2.50;;;;;;;19.87;52.17;101974.84;5070826;28;20108;-81
2021/07/19 10:33:58;;;;;;;5.10;2.25;;;;;;;19.93;54.02;101982.97;5061969;28;20036;-79
2021/07/19 10:36:51;;;;;;;6.32;2.55;;;;;;;19.47;53.38;101984.75;5098301;28;20051;-82
2021/07/19 10:39:24;;;;;;;8.00;2.58;;;;;;;19.36;57.19;101983.28;5064617;28;20063;-82
2021/07/19 10:42:01;;;;;;;4.57;2.25;;;;;;;19.42;55.99;101986.09;5078343;28;20093;-80
2021/07/19 10:44:30;;;;;;;8.95;2.30;;;;;;;19.46;59.86;101989.25;5087480;28;20044;-81
2021/07/19 10:46:57;;;;;;;7.47;2.20;;;;;;;19.28;55.13;101983.34;5068577;28;20034;-77
2021/07/19 10:49:30;;;;;;;6.75;2.47;;;;;;;19.34;55.76;101986.13;5097993;28;20034;-78
2021/07/19 10:51:55;;;;;;;7.78;2.33;;;;;;;19.40;55.77;101977.47;5066220;28;20398;-78
2021/07/19 10:54:23;;;;;;;5.82;2.30;;;;;;;19.49;55.63;101977.41;5069701;28;20029;-78
2021/07/19 10:56:51;;;;;;;7.63;2.60;;;;;;;19.37;55.23;101980.47;5073213;28;20700;-79
2021/07/19 10:59:27;;;;;;;5.38;2.25;;;;;;;19.42;55.19;101969.28;5079156;28;20066;-78
2021/07/19 11:01:56;;;;;;;5.82;2.67;;;;;;;19.47;56.04;101979.41;5081293;28;20042;-78
2021/07/19 11:04:23;;;;;;;11.20;2.63;;;;;;;19.60;55.93;101975.16;5079478;28;20067;-78
2021/07/19 11:06:51;;;;;;;5.45;2.50;;;;;;;19.82;55.79;101972.75;5075004;28;20089;-78
2021/07/19 11:09:20;;;;;;;7.88;2.60;;;;;;;20.02;59.21;101981.06;5083643;28;20027;-79
2021/07/19 11:11:45;;;;;;;8.80;2.78;;;;;;;19.97;54.84;101964.81;5088594;28;20043;-79
2021/07/19 11:14:21;;;;;;;9.23;2.78;;;;;;;19.87;54.81;101972.19;5091345;28;20028;-77
2021/07/19 11:16:50;;;;;;;7.25;2.80;;;;;;;19.89;59.29;101959.53;5094421;28;20721;-77
2021/07/19 11:19:28;;;;;;;6.53;2.55;;;;;;;20.18;54.43;101972.94;5065991;28;20085;-79
2021/07/19 11:22:08;;;;;;;6.18;2.38;;;;;;;20.27;54.31;101981.69;5080935;28;20028;-80
2021/07/19 11:25:07;;;;;;;4.53;2.40;;;;;;;20.39;53.91;101963.41;5056091;28;20497;-79
2021/07/19 11:27:35;;;;;;;8.02;2.55;;;;;;;20.35;54.36;101973.59;5096253;28;20129;-76